Stations météo

réclame
Mon MeteoGroup
Tarifa, Espagne (8458): Température de l'air & dewpoint: 14.09.2020 20:00:00 - 20.09.2020 20:00:00 (CEST)Tarifa, Espagne (8458): Vitesse du vent & gusts: 14.09.2020 20:00:00 - 20.09.2020 20:00:00 (CEST)Tarifa, Espagne (8458): Direction du vent: 14.09.2020 20:00:00 - 20.09.2020 20:00:00 (CEST)Tarifa, Espagne (8458): reduced air pressure: 14.09.2020 20:00:00 - 20.09.2020 20:00:00 (CEST)Tarifa, Espagne (8458): Quantités de précipitations: 14.09.2020 20:00:00 - 20.09.2020 20:00:00 (CEST)
Date & Time tt [°C] td [°C] ff [km/h] ff [knt] fx [km/h] fx [knt] dd ppp [hPa] rr [mm]
20.09.2020 20:00:00 - - - - - - - - -
20.09.2020 19:00:00 21,3 18,7 19 10 37 20 W 1016,1 0,0
20.09.2020 18:00:00 21,6 18,8 20 11 36 19 W 1016,0 0,0
20.09.2020 17:00:00 - - - - - - - - -
20.09.2020 16:00:00 - - - - - - - - -
20.09.2020 15:00:00 22,2 18,6 18 10 32 17 W 1017,5 0,0
20.09.2020 14:00:00 22,1 18,5 21 11 31 17 W 1018,3 -
20.09.2020 13:00:00 22,2 18,4 14 7 26 14 WSW 1018,6 0,0
20.09.2020 12:00:00 - - - - - - - - -
20.09.2020 11:00:00 - - - - - - - - -
20.09.2020 10:00:00 - - - - - - - - -
20.09.2020 09:00:00 17,8 17,1 3 2 8 4 WNW 1018,2 0,0
20.09.2020 08:00:00 17,6 16,8 4 2 10 5 WNW 1018,1 -
20.09.2020 07:00:00 17,0 16,4 7 4 11 6 NNW 1018,2 0,0
20.09.2020 06:00:00 17,8 16,8 4 2 9 5 NW 1018,2 0,0
20.09.2020 05:00:00 - - - - - - - - -
20.09.2020 04:00:00 - - - - - - - - -
20.09.2020 03:00:00 18,7 17,1 8 4 17 9 NW 1019,0 0,0
20.09.2020 02:00:00 18,6 17,3 7 4 14 7 NW 1019,0 -
20.09.2020 01:00:00 19,1 17,6 7 4 12 6 NW 1019,2 0,0
20.09.2020 00:00:00 - - - - - - - - -
19.09.2020 23:00:00 - - - - - - - - -
19.09.2020 22:00:00 20,4 18,0 13 7 28 15 WNW 1018,6 0,0
19.09.2020 21:00:00 20,9 19,0 16 8 24 13 W 1017,7 0,0
19.09.2020 20:00:00 21,8 19,0 13 7 25 13 WNW 1017,4 -
19.09.2020 19:00:00 22,5 20,1 17 9 28 15 W 1017,3 0,0
19.09.2020 18:00:00 23,0 20,1 16 9 27 15 W 1017,1 0,0
19.09.2020 17:00:00 23,0 20,0 14 8 30 16 W 1017,2 0,0
19.09.2020 16:00:00 - - - - - - - - -
19.09.2020 15:00:00 23,3 19,6 14 8 32 17 W 1018,1 0,0
19.09.2020 14:00:00 23,2 19,1 16 9 30 16 W 1018,5 -
19.09.2020 13:00:00 - - - - - - - - -
19.09.2020 12:00:00 23,2 18,5 10 5 19 11 WSW 1018,6 0,0
19.09.2020 11:00:00 22,0 18,8 9 5 16 8 WSW 1018,4 0,0
19.09.2020 10:00:00 21,0 18,2 6 3 16 9 SW 1017,9 0,0
19.09.2020 09:00:00 19,7 18,4 8 4 14 8 SW 1017,4 0,0
19.09.2020 08:00:00 19,0 18,2 6 3 16 9 SW 1016,9 -
19.09.2020 07:00:00 19,3 18,5 6 3 17 9 WSW 1016,5 0,0
19.09.2020 06:00:00 19,8 18,8 8 4 19 10 WSW 1016,4 0,0
19.09.2020 05:00:00 - - - - - - - - -
19.09.2020 04:00:00 - - - - - - - - -
19.09.2020 03:00:00 20,1 19,1 15 8 23 13 SW 1016,5 0,0
19.09.2020 02:00:00 20,5 19,1 16 8 23 12 SW 1016,9 -
19.09.2020 01:00:00 20,7 19,0 13 7 23 12 SW 1016,9 0,0
19.09.2020 00:00:00 21,1 19,2 17 9 26 14 SW 1017,1 0,0
18.09.2020 23:00:00 - - - - - - - - -
18.09.2020 22:00:00 - - - - - - - - -
18.09.2020 21:00:00 21,6 19,0 22 12 36 20 SW 1015,3 0,0
18.09.2020 20:00:00 22,4 19,3 23 12 39 21 WSW 1014,7 -
18.09.2020 19:00:00 - - - - - - - - -
18.09.2020 18:00:00 23,5 18,6 25 13 35 19 WSW 1014,2 0,0
18.09.2020 17:00:00 24,1 18,5 21 11 36 19 WSW 1014,2 0,0
18.09.2020 16:00:00 23,4 18,7 24 13 45 25 WSW 1014,0 0,0
18.09.2020 15:00:00 23,5 18,6 30 16 43 23 WSW 1014,0 0,0
18.09.2020 14:00:00 24,4 17,9 10 6 24 13 SW 1013,5 -
18.09.2020 13:00:00 - - - - - - - - -
18.09.2020 12:00:00 24,4 19,5 8 4 22 12 SSE 1013,2 0,0
18.09.2020 11:00:00 23,3 20,1 16 9 33 18 E 1012,7 0,0
18.09.2020 10:00:00 21,4 19,8 18 10 37 20 ENE 1011,8 0,0
18.09.2020 09:00:00 20,8 20,0 21 12 37 20 ENE 1011,2 0,0
18.09.2020 08:00:00 20,6 19,3 24 13 42 23 ENE 1011,1 -
18.09.2020 07:00:00 20,6 18,9 26 14 46 25 ENE 1010,8 0,0
18.09.2020 06:00:00 20,9 18,8 22 12 36 19 ENE 1010,7 0,0
18.09.2020 05:00:00 21,1 19,2 12 7 22 12 ENE 1011,4 0,0
18.09.2020 04:00:00 - - - - - - - - -
18.09.2020 03:00:00 21,3 17,9 3 2 14 7 SSE 1012,7 0,0
18.09.2020 02:00:00 21,2 18,0 11 6 35 19 S 1013,4 -
18.09.2020 01:00:00 - - - - - - - - -
18.09.2020 00:00:00 22,3 17,2 15 8 43 23 S 1013,4 0,0
17.09.2020 23:00:00 23,0 16,8 27 15 46 25 S 1013,6 0,0
17.09.2020 22:00:00 - - - - - - - - -
17.09.2020 21:00:00 22,7 17,9 11 6 25 14 SSW 1012,9 0,1
17.09.2020 20:00:00 22,8 18,3 18 10 27 15 S 1012,6 -
17.09.2020 19:00:00 - - - - - - - - -
17.09.2020 18:00:00 - - - - - - - - -
17.09.2020 17:00:00 23,7 22,0 24 13 42 23 ENE 1011,5 0,0
17.09.2020 16:00:00 - - - - - - - - -
17.09.2020 15:00:00 26,1 22,6 30 16 44 24 ENE 1011,5 0,0
17.09.2020 14:00:00 24,6 21,9 22 12 36 20 E 1012,2 -
17.09.2020 13:00:00 25,9 22,0 26 14 37 20 E 1012,3 0,0
17.09.2020 12:00:00 26,4 22,3 23 13 37 20 E 1012,9 0,0
17.09.2020 11:00:00 24,0 22,3 22 12 35 19 E 1013,1 0,0
17.09.2020 10:00:00 23,4 22,2 21 11 34 19 ENE 1012,9 0,0
17.09.2020 09:00:00 22,9 22,2 22 12 34 18 ENE 1012,9 0,0
17.09.2020 08:00:00 22,7 21,8 16 9 37 20 ENE 1012,8 -
17.09.2020 07:00:00 22,4 21,4 23 12 38 20 ENE 1012,2 0,0
17.09.2020 06:00:00 22,2 20,9 17 9 34 18 ENE 1012,2 0,0
17.09.2020 05:00:00 22,3 20,7 22 12 37 20 ENE 1012,5 0,0
17.09.2020 04:00:00 22,4 20,7 17 9 35 19 ENE 1012,9 0,0
17.09.2020 03:00:00 21,8 20,6 14 7 26 14 ENE 1014,0 0,0
17.09.2020 02:00:00 22,1 21,3 14 8 31 17 ENE 1014,6 -
17.09.2020 01:00:00 22,1 21,1 19 11 42 23 ENE 1014,8 0,0
17.09.2020 00:00:00 22,2 20,9 30 16 45 25 ENE 1014,0 0,0
16.09.2020 23:00:00 22,2 20,9 31 17 45 24 ENE 1013,8 0,0
16.09.2020 22:00:00 22,2 21,0 33 18 47 26 ENE 1014,0 0,0
16.09.2020 21:00:00 22,3 20,9 24 13 36 19 ENE 1014,7 0,0
16.09.2020 20:00:00 22,6 20,9 22 12 38 21 ENE 1014,3 -
16.09.2020 19:00:00 22,8 21,1 24 13 44 24 E 1014,2 0,0
16.09.2020 18:00:00 23,2 21,3 28 15 44 24 E 1014,0 0,0
16.09.2020 17:00:00 24,4 21,3 29 16 46 25 E 1013,6 0,0
16.09.2020 16:00:00 24,9 21,6 23 12 45 25 ENE 1014,6 0,0
16.09.2020 15:00:00 24,6 21,5 31 17 47 26 ENE 1014,9 0,0
16.09.2020 14:00:00 25,1 21,4 32 18 47 25 E 1015,5 -
16.09.2020 13:00:00 24,3 21,6 29 16 43 23 ENE 1015,9 0,0
16.09.2020 12:00:00 23,4 21,6 24 13 37 20 ENE 1016,9 0,0
16.09.2020 11:00:00 24,0 22,1 21 11 36 19 E 1017,2 0,0
16.09.2020 10:00:00 - - - - - - - - -
16.09.2020 09:00:00 - - - - - - - - -
16.09.2020 08:00:00 21,7 21,1 23 12 38 20 ENE 1016,3 -
16.09.2020 07:00:00 21,8 21,1 22 12 35 19 ENE 1016,6 0,0
16.09.2020 06:00:00 21,8 20,8 20 11 29 15 E 1016,7 0,0
16.09.2020 05:00:00 22,2 20,9 13 7 21 12 ENE 1017,2 0,0
16.09.2020 04:00:00 22,6 20,7 10 5 24 13 NE 1018,0 0,0
16.09.2020 03:00:00 22,6 20,5 14 8 33 18 NE 1018,0 0,0
16.09.2020 02:00:00 22,1 20,7 18 10 27 15 ENE 1018,2 -
16.09.2020 01:00:00 - - - - - - - - -
16.09.2020 00:00:00 21,5 20,5 6 3 14 8 NE 1018,9 0,0
15.09.2020 23:00:00 22,0 21,2 9 5 22 12 NE 1018,7 0,0
15.09.2020 22:00:00 - - - - - - - - -
15.09.2020 21:00:00 22,6 22,0 12 7 37 20 ENE 1017,5 0,0
15.09.2020 20:00:00 23,1 21,7 23 12 37 20 E 1017,2 -
15.09.2020 19:00:00 - - - - - - - - -
15.09.2020 18:00:00 25,0 21,7 26 14 43 23 ENE 1017,2 0,0
15.09.2020 17:00:00 25,5 21,4 29 15 40 22 ENE 1017,6 0,0
15.09.2020 16:00:00 26,3 21,7 23 12 41 22 ENE 1018,4 0,0
15.09.2020 15:00:00 26,9 21,2 23 12 36 20 E 1019,3 0,0
15.09.2020 14:00:00 26,3 21,1 26 14 42 23 E 1019,6 -
15.09.2020 13:00:00 25,4 21,1 29 16 39 21 ENE 1020,1 0,0
15.09.2020 12:00:00 25,1 21,6 23 13 34 18 ENE 1020,4 0,0
15.09.2020 11:00:00 24,6 21,3 16 9 25 14 ENE 1020,3 0,0
15.09.2020 10:00:00 23,4 20,3 16 9 26 14 ENE 1020,0 0,0
15.09.2020 09:00:00 23,0 19,6 7 4 18 10 ENE 1019,6 0,0
15.09.2020 08:00:00 22,8 19,6 10 6 19 10 ENE 1018,9 -
15.09.2020 07:00:00 22,5 19,8 10 5 20 11 NE 1018,6 0,0
15.09.2020 06:00:00 - - - - - - - - -
15.09.2020 05:00:00 - - - - - - - - -
15.09.2020 04:00:00 - - - - - - - - -
15.09.2020 03:00:00 22,6 21,1 15 8 27 14 ENE 1019,5 0,0
15.09.2020 02:00:00 22,7 21,1 17 9 31 17 ENE 1019,5 -
15.09.2020 01:00:00 22,7 21,5 18 10 34 18 ENE 1019,4 0,0
15.09.2020 00:00:00 22,7 21,7 20 11 34 18 ENE 1019,3 0,0
14.09.2020 23:00:00 22,8 21,6 23 13 36 20 ENE 1019,2 0,0
14.09.2020 22:00:00 - - - - - - - - -
14.09.2020 21:00:00 23,0 21,6 17 9 34 19 ENE 1018,6 0,0
14.09.2020 20:00:00 23,4 21,5 22 12 44 24 ENE 1018,2 -

tt = Température de l'air
td = dewpoint
ff = Vitesse du vent
fx = gusts
dd = Direction du vent
ppp = reduced air pressure
rr = Quantités de précipitations

stations d'obs. à proximité